createdAt,value
2022-12-31T00:00:22.300Z,4.25
2022-12-31T00:02:49.701Z,4.80
2022-12-31T00:05:17.138Z,5.70
2022-12-31T00:07:44.412Z,6.20
2022-12-31T00:10:11.661Z,5.75
2022-12-31T00:12:38.932Z,6.63
2022-12-31T00:15:06.428Z,6.32
2022-12-31T00:17:35.166Z,5.65
2022-12-31T00:20:02.408Z,5.03
2022-12-31T00:22:29.631Z,5.43
2022-12-31T00:24:56.868Z,5.68
2022-12-31T00:27:24.165Z,6.60
2022-12-31T00:29:51.516Z,7.68
2022-12-31T00:32:18.703Z,7.22
2022-12-31T00:34:46.218Z,6.15
2022-12-31T00:37:13.504Z,7.72
2022-12-31T00:39:40.779Z,6.93
2022-12-31T00:42:08.070Z,9.25
2022-12-31T00:44:35.338Z,6.78
2022-12-31T00:47:02.585Z,6.88
2022-12-31T00:49:29.837Z,7.22
2022-12-31T00:51:57.126Z,7.80
2022-12-31T00:54:24.431Z,7.63
2022-12-31T00:56:51.786Z,7.88
2022-12-31T00:59:18.969Z,7.47
2022-12-31T01:01:46.588Z,6.93
2022-12-31T01:04:16.744Z,6.85
2022-12-31T01:06:44.466Z,7.00
2022-12-31T01:09:12.262Z,6.20
2022-12-31T01:11:39.537Z,6.18
2022-12-31T01:14:17.014Z,5.68
2022-12-31T01:16:48.857Z,6.38
2022-12-31T01:19:21.049Z,6.13
2022-12-31T01:21:48.948Z,7.97
2022-12-31T01:24:16.452Z,7.75
2022-12-31T01:26:44.359Z,5.25
2022-12-31T01:29:12.419Z,5.93
2022-12-31T01:31:40.134Z,6.72
2022-12-31T01:34:07.790Z,6.47
2022-12-31T01:36:35.744Z,6.20
2022-12-31T01:39:05.404Z,6.78
2022-12-31T01:41:43.464Z,7.93
2022-12-31T01:44:13.946Z,4.80
2022-12-31T01:46:41.194Z,5.20
2022-12-31T01:49:14.481Z,6.10
2022-12-31T01:51:42.742Z,6.07
2022-12-31T01:54:11.476Z,6.05
2022-12-31T01:56:39.956Z,5.40
2022-12-31T01:59:09.381Z,5.93
2022-12-31T02:01:37.610Z,8.02
2022-12-31T02:04:09.024Z,7.78
2022-12-31T02:06:40.778Z,4.03
2022-12-31T02:09:08.461Z,4.75
2022-12-31T02:11:38.069Z,7.85
2022-12-31T02:14:11.876Z,4.97
2022-12-31T02:16:53.841Z,3.65
2022-12-31T02:19:38.518Z,6.78
2022-12-31T02:22:08.616Z,6.28
2022-12-31T02:24:54.791Z,7.15
2022-12-31T02:27:25.159Z,11.25
2022-12-31T02:29:58.554Z,5.28
2022-12-31T02:32:30.000Z,4.22
2022-12-31T02:35:19.728Z,6.95
2022-12-31T02:37:48.758Z,5.50
2022-12-31T02:40:18.332Z,7.78
2022-12-31T02:42:48.684Z,8.73
2022-12-31T02:45:23.200Z,5.38
2022-12-31T02:47:55.581Z,7.72
2022-12-31T02:51:01.997Z,10.83
2022-12-31T02:53:38.586Z,5.78
2022-12-31T02:56:09.025Z,5.50
2022-12-31T02:59:09.617Z,4.50
2022-12-31T03:01:58.561Z,7.32
2022-12-31T03:04:32.505Z,6.70
2022-12-31T03:07:08.696Z,5.45
2022-12-31T03:09:36.197Z,5.25
2022-12-31T03:12:23.538Z,6.47
2022-12-31T03:14:57.119Z,4.88
2022-12-31T03:17:24.986Z,2.75
2022-12-31T03:20:11.281Z,4.03
2022-12-31T03:22:40.153Z,4.28
2022-12-31T03:25:31.625Z,3.97
2022-12-31T03:27:59.359Z,5.60
2022-12-31T03:30:27.143Z,5.57
2022-12-31T03:32:56.272Z,4.32
2022-12-31T03:35:24.014Z,6.15
2022-12-31T03:37:51.488Z,3.30
2022-12-31T03:40:19.501Z,6.20
2022-12-31T03:42:47.030Z,6.95
2022-12-31T03:45:14.640Z,5.40
2022-12-31T03:47:41.949Z,6.15
2022-12-31T03:50:11.196Z,4.20
2022-12-31T03:52:38.864Z,4.53
2022-12-31T03:55:07.057Z,6.72
2022-12-31T03:57:34.416Z,4.38
2022-12-31T04:00:01.770Z,3.60
2022-12-31T04:02:31.902Z,4.32
2022-12-31T04:04:59.376Z,3.95
2022-12-31T04:07:26.729Z,3.90
2022-12-31T04:09:54.851Z,6.93
2022-12-31T04:12:22.157Z,4.85
2022-12-31T04:14:49.447Z,4.88
2022-12-31T04:17:16.751Z,5.13
2022-12-31T04:19:44.111Z,3.63
2022-12-31T04:22:11.603Z,3.05
2022-12-31T04:24:38.916Z,4.13
2022-12-31T04:27:08.063Z,4.50
2022-12-31T04:32:03.300Z,5.63
2022-12-31T04:34:30.775Z,4.28
2022-12-31T04:36:58.219Z,3.70
2022-12-31T04:39:31.414Z,3.90
2022-12-31T04:41:58.696Z,4.72
2022-12-31T04:44:26.002Z,3.55
2022-12-31T04:46:53.408Z,4.45
2022-12-31T04:49:21.562Z,5.57
2022-12-31T04:51:48.849Z,4.25
2022-12-31T04:54:16.138Z,4.03
2022-12-31T04:56:43.640Z,5.45
2022-12-31T04:59:11.745Z,5.57
2022-12-31T05:01:39.580Z,5.22
2022-12-31T05:04:07.027Z,5.45
2022-12-31T05:06:34.830Z,4.95
2022-12-31T05:09:02.322Z,4.30
2022-12-31T05:11:29.570Z,5.53
2022-12-31T05:13:56.871Z,6.50
2022-12-31T05:16:24.198Z,6.18
2022-12-31T05:18:51.533Z,5.82
2022-12-31T05:21:21.089Z,6.65
2022-12-31T05:23:48.923Z,5.38
2022-12-31T05:26:16.738Z,5.80
2022-12-31T05:28:44.042Z,6.53
2022-12-31T05:31:11.307Z,5.22
2022-12-31T05:33:38.577Z,6.20
2022-12-31T05:36:06.057Z,4.50
2022-12-31T05:38:33.516Z,5.03
2022-12-31T05:41:03.003Z,4.68
2022-12-31T05:43:30.352Z,4.55
2022-12-31T05:45:57.709Z,5.40
2022-12-31T05:48:24.944Z,4.90
2022-12-31T05:50:52.269Z,5.13
2022-12-31T05:53:19.590Z,6.10
2022-12-31T05:55:47.673Z,4.00
2022-12-31T05:58:16.259Z,6.63
2022-12-31T06:00:43.816Z,4.82
2022-12-31T06:03:11.367Z,4.93
2022-12-31T06:05:42.958Z,6.25
2022-12-31T06:08:10.968Z,4.75
2022-12-31T06:10:39.213Z,5.05
2022-12-31T06:13:06.787Z,4.45
2022-12-31T06:15:40.554Z,5.60
2022-12-31T06:18:07.943Z,7.05
2022-12-31T06:20:37.794Z,5.38
2022-12-31T06:23:05.609Z,4.97
2022-12-31T06:25:33.030Z,3.95
2022-12-31T06:28:00.350Z,3.53
2022-12-31T06:30:27.599Z,4.13
2022-12-31T06:32:55.399Z,5.30
2022-12-31T06:35:22.761Z,6.88
2022-12-31T06:37:50.149Z,5.30
2022-12-31T06:40:17.399Z,6.20
2022-12-31T06:42:44.680Z,7.50
2022-12-31T06:45:12.015Z,8.82
2022-12-31T06:47:39.312Z,8.40
2022-12-31T06:50:07.265Z,7.50
2022-12-31T06:52:34.546Z,8.00
2022-12-31T06:55:01.955Z,7.47
2022-12-31T06:57:29.462Z,7.55
2022-12-31T06:59:56.844Z,7.00
2022-12-31T07:02:37.148Z,6.88
2022-12-31T07:05:08.847Z,8.18
2022-12-31T07:07:41.914Z,7.47
2022-12-31T07:10:30.036Z,7.03
2022-12-31T07:13:24.234Z,6.15
2022-12-31T07:16:03.847Z,6.07
2022-12-31T07:18:34.514Z,6.25
2022-12-31T07:21:02.157Z,6.28
2022-12-31T07:23:29.540Z,6.32
2022-12-31T07:26:04.390Z,5.30
2022-12-31T07:28:46.900Z,3.80
2022-12-31T07:31:19.839Z,5.57
2022-12-31T07:33:52.357Z,3.30
2022-12-31T07:36:34.867Z,2.17
2022-12-31T07:39:08.356Z,2.83
2022-12-31T07:42:00.725Z,1.63
2022-12-31T07:44:50.702Z,0.60
2022-12-31T07:47:26.046Z,2.53
2022-12-31T07:49:53.574Z,1.35
2022-12-31T07:52:21.405Z,1.85
2022-12-31T07:54:48.809Z,0.68
2022-12-31T07:57:17.552Z,2.00
2022-12-31T07:59:56.184Z,1.77
2022-12-31T08:02:26.542Z,1.25
2022-12-31T08:04:57.082Z,2.33
2022-12-31T08:07:30.445Z,1.63
2022-12-31T08:09:58.305Z,3.35
2022-12-31T08:12:26.870Z,2.03
2022-12-31T08:14:54.200Z,1.90
2022-12-31T08:17:21.561Z,2.20
2022-12-31T08:19:49.233Z,3.35
2022-12-31T08:22:16.492Z,1.50
2022-12-31T08:24:47.770Z,2.20
2022-12-31T08:27:27.039Z,2.67
2022-12-31T08:30:06.633Z,2.13
2022-12-31T08:32:47.301Z,3.75
2022-12-31T08:35:14.508Z,3.28
2022-12-31T08:37:51.078Z,1.30
2022-12-31T08:40:50.912Z,1.67
2022-12-31T08:43:41.430Z,1.95
2022-12-31T08:46:16.503Z,1.77
2022-12-31T08:48:44.261Z,2.97
2022-12-31T08:51:22.173Z,3.70
2022-12-31T08:53:50.191Z,3.60
2022-12-31T08:56:31.979Z,3.80
2022-12-31T08:59:14.183Z,2.50
2022-12-31T09:02:01.174Z,3.05
2022-12-31T09:04:46.915Z,4.28
2022-12-31T09:07:15.797Z,3.90
2022-12-31T09:09:56.418Z,2.28
2022-12-31T09:12:29.843Z,2.38
2022-12-31T09:15:07.798Z,3.95
2022-12-31T09:17:38.040Z,3.63
2022-12-31T09:20:05.811Z,3.38
2022-12-31T09:22:33.341Z,2.47
2022-12-31T09:25:00.889Z,5.40
2022-12-31T09:27:36.807Z,2.97
2022-12-31T09:30:06.768Z,3.92
2022-12-31T09:32:43.336Z,2.45
2022-12-31T09:35:20.167Z,4.88
2022-12-31T09:37:56.186Z,4.25
2022-12-31T09:40:29.379Z,4.15
2022-12-31T09:43:17.337Z,4.15
2022-12-31T09:46:07.687Z,3.75
2022-12-31T09:48:49.909Z,5.05
2022-12-31T09:51:25.575Z,2.05
2022-12-31T09:56:38.717Z,4.72
2022-12-31T09:59:29.158Z,4.72
2022-12-31T10:02:03.047Z,4.18
2022-12-31T10:05:02.832Z,3.92
2022-12-31T10:07:40.417Z,5.88
2022-12-31T10:10:15.641Z,8.13
2022-12-31T10:13:06.299Z,5.72
2022-12-31T10:15:41.388Z,4.15
2022-12-31T10:18:08.609Z,5.80
2022-12-31T10:21:09.378Z,5.93
2022-12-31T10:23:39.653Z,7.07
2022-12-31T10:26:19.205Z,8.38
2022-12-31T10:28:46.459Z,6.22
2022-12-31T10:31:16.588Z,6.65
2022-12-31T10:33:45.995Z,7.82
2022-12-31T10:36:21.282Z,3.15
2022-12-31T10:39:14.490Z,8.23
2022-12-31T10:41:57.062Z,6.22
2022-12-31T10:44:30.353Z,6.00
2022-12-31T10:47:08.075Z,4.57
2022-12-31T10:49:54.129Z,7.72
2022-12-31T10:52:41.546Z,8.60
2022-12-31T10:55:18.728Z,6.30
2022-12-31T10:58:10.585Z,7.13
2022-12-31T11:00:59.287Z,5.63
2022-12-31T11:03:52.587Z,7.30
2022-12-31T11:06:39.115Z,6.15
2022-12-31T11:09:12.546Z,6.32
2022-12-31T11:11:48.681Z,10.70
2022-12-31T11:14:16.201Z,6.78
2022-12-31T11:16:57.721Z,7.50
2022-12-31T11:19:25.075Z,10.25
2022-12-31T11:22:10.195Z,6.80
2022-12-31T11:25:13.423Z,8.55
2022-12-31T11:27:47.703Z,5.88
2022-12-31T11:30:35.479Z,6.53
2022-12-31T11:33:18.151Z,8.43
2022-12-31T11:36:04.405Z,5.72
2022-12-31T11:38:34.271Z,11.32
2022-12-31T11:41:01.553Z,6.47
2022-12-31T11:43:34.635Z,8.00
2022-12-31T11:46:17.930Z,7.60
2022-12-31T11:48:52.318Z,7.43
2022-12-31T11:51:38.531Z,8.27
2022-12-31T11:54:25.128Z,9.15
2022-12-31T11:57:00.417Z,7.43
2022-12-31T11:59:27.947Z,8.07
2022-12-31T12:01:55.235Z,8.27
2022-12-31T12:04:22.731Z,8.35
2022-12-31T12:06:49.966Z,10.50
2022-12-31T12:09:28.457Z,9.05
2022-12-31T12:12:03.250Z,7.78
2022-12-31T12:14:40.120Z,7.60
2022-12-31T12:17:09.166Z,6.15
2022-12-31T12:19:42.163Z,6.35
2022-12-31T12:22:22.070Z,5.93
2022-12-31T12:24:53.902Z,7.13
2022-12-31T12:27:22.404Z,6.95
2022-12-31T12:29:49.796Z,6.45
2022-12-31T12:32:19.388Z,9.07
2022-12-31T12:34:49.795Z,7.38
2022-12-31T12:37:26.887Z,8.18
2022-12-31T12:40:20.606Z,8.85
2022-12-31T12:42:48.879Z,5.25
2022-12-31T12:45:27.093Z,6.63
2022-12-31T12:47:56.110Z,9.18
2022-12-31T12:50:25.367Z,7.88
2022-12-31T12:55:39.267Z,4.43
2022-12-31T12:58:11.658Z,6.60
2022-12-31T13:00:54.791Z,7.03
2022-12-31T13:03:41.740Z,10.73
2022-12-31T13:06:41.499Z,8.18
2022-12-31T13:09:27.135Z,7.75
2022-12-31T13:11:54.538Z,7.25
2022-12-31T13:14:34.694Z,7.40
2022-12-31T13:17:32.647Z,8.15
2022-12-31T13:20:02.835Z,5.43
2022-12-31T13:22:35.230Z,7.90
2022-12-31T13:25:02.571Z,8.35
2022-12-31T13:27:29.893Z,8.23
2022-12-31T13:29:59.480Z,8.80
2022-12-31T13:32:33.300Z,9.70
2022-12-31T13:35:03.458Z,9.15
2022-12-31T13:37:49.284Z,9.93
2022-12-31T13:40:22.267Z,8.68
2022-12-31T13:42:58.090Z,12.10
2022-12-31T13:45:27.642Z,11.32
2022-12-31T13:48:00.645Z,9.48
2022-12-31T13:50:32.237Z,8.35
2022-12-31T13:53:03.361Z,7.03
2022-12-31T13:55:37.721Z,9.15
2022-12-31T13:58:04.944Z,9.40
2022-12-31T14:00:52.483Z,10.95
2022-12-31T14:03:23.012Z,7.90
2022-12-31T14:05:50.354Z,11.32
2022-12-31T14:08:17.826Z,11.55
2022-12-31T14:10:56.388Z,10.52
2022-12-31T14:13:27.830Z,8.95
2022-12-31T14:16:01.180Z,8.48
2022-12-31T14:18:35.277Z,8.05
2022-12-31T14:21:12.634Z,8.85
2022-12-31T14:23:52.881Z,11.23
2022-12-31T14:26:23.372Z,8.80
2022-12-31T14:29:09.826Z,7.20
2022-12-31T14:32:01.058Z,9.52
2022-12-31T14:35:03.871Z,7.35
2022-12-31T14:37:38.280Z,6.43
2022-12-31T14:40:05.557Z,7.53
2022-12-31T14:42:35.919Z,6.63
2022-12-31T14:45:16.015Z,9.43
2022-12-31T14:47:49.655Z,7.68
2022-12-31T14:50:18.602Z,6.40
2022-12-31T14:52:53.432Z,7.32
2022-12-31T14:55:28.595Z,9.75
2022-12-31T15:00:57.328Z,6.78
2022-12-31T15:03:34.543Z,8.77
2022-12-31T15:06:04.898Z,8.55
2022-12-31T15:08:32.244Z,10.90
2022-12-31T15:11:19.230Z,8.02
2022-12-31T15:14:09.862Z,7.97
2022-12-31T15:16:57.513Z,10.15
2022-12-31T15:19:37.326Z,9.55
2022-12-31T15:22:07.777Z,10.20
2022-12-31T15:24:35.245Z,7.82
2022-12-31T15:27:06.508Z,11.05
2022-12-31T15:29:35.232Z,10.63
2022-12-31T15:32:04.581Z,10.18
2022-12-31T15:34:34.726Z,11.52
2022-12-31T15:37:05.286Z,10.43
2022-12-31T15:39:33.281Z,7.72
2022-12-31T15:42:36.763Z,10.45
2022-12-31T15:44:56.104Z,14.35
2022-12-31T15:47:30.923Z,11.80
2022-12-31T15:50:00.993Z,11.32
2022-12-31T15:52:33.496Z,12.38
2022-12-31T15:55:01.265Z,9.57
2022-12-31T15:57:31.819Z,10.57
2022-12-31T16:00:05.942Z,10.55
2022-12-31T16:02:33.400Z,11.93
2022-12-31T16:05:00.979Z,8.90
2022-12-31T16:07:28.839Z,10.98
2022-12-31T16:09:58.417Z,10.73
2022-12-31T16:12:33.224Z,11.55
2022-12-31T16:15:02.624Z,15.07
2022-12-31T16:17:39.702Z,11.88
2022-12-31T16:20:27.032Z,10.80
2022-12-31T16:22:57.431Z,12.25
2022-12-31T16:25:33.574Z,12.80
2022-12-31T16:28:03.012Z,14.65
2022-12-31T16:30:32.005Z,12.43
2022-12-31T16:33:03.616Z,11.00
2022-12-31T16:35:36.299Z,9.30
2022-12-31T16:38:15.914Z,12.13
2022-12-31T16:40:44.270Z,11.68
2022-12-31T16:43:27.934Z,11.38
2022-12-31T16:46:07.243Z,11.20
2022-12-31T16:48:34.803Z,11.85
2022-12-31T16:51:02.222Z,11.75
2022-12-31T16:53:32.604Z,12.20
2022-12-31T16:56:11.325Z,14.80
2022-12-31T16:58:43.175Z,16.17
2022-12-31T17:01:25.414Z,10.55
2022-12-31T17:03:54.366Z,14.20
2022-12-31T17:06:22.119Z,11.68
2022-12-31T17:08:55.696Z,10.70
2022-12-31T17:11:32.628Z,11.25
2022-12-31T17:14:06.222Z,11.55
2022-12-31T17:16:37.813Z,16.05
2022-12-31T17:19:05.609Z,12.70
2022-12-31T17:21:33.214Z,12.55
2022-12-31T17:24:07.253Z,14.25
2022-12-31T17:26:35.554Z,9.82
2022-12-31T17:29:05.162Z,15.57
2022-12-31T17:31:32.430Z,11.13
2022-12-31T17:34:15.135Z,9.65
2022-12-31T17:36:52.342Z,12.18
2022-12-31T17:39:20.715Z,12.77
2022-12-31T17:41:48.819Z,8.98
2022-12-31T17:44:19.940Z,10.82
2022-12-31T17:46:47.650Z,10.85
2022-12-31T17:49:15.042Z,12.55
2022-12-31T17:51:47.397Z,11.20
2022-12-31T17:54:19.062Z,10.95
2022-12-31T17:56:46.645Z,9.65
2022-12-31T17:59:24.467Z,11.95
2022-12-31T18:01:51.993Z,11.27
2022-12-31T18:04:21.368Z,13.65
2022-12-31T18:09:16.339Z,11.45
2022-12-31T18:11:43.791Z,10.98
2022-12-31T18:14:15.445Z,11.65
2022-12-31T18:16:42.904Z,13.20
2022-12-31T18:19:23.497Z,11.90
2022-12-31T18:22:00.704Z,10.85
2022-12-31T18:24:28.020Z,11.93
2022-12-31T18:26:55.363Z,13.15
2022-12-31T18:29:22.963Z,13.10
2022-12-31T18:31:50.519Z,12.95
2022-12-31T18:34:19.172Z,11.55
2022-12-31T18:36:46.774Z,9.68
2022-12-31T18:39:14.251Z,13.30
2022-12-31T18:41:48.998Z,12.23
2022-12-31T18:44:16.550Z,13.27
2022-12-31T18:46:43.924Z,16.58
2022-12-31T18:49:11.465Z,13.07
2022-12-31T18:51:38.785Z,12.43
2022-12-31T18:54:10.406Z,13.20
2022-12-31T18:56:41.824Z,14.00
2022-12-31T18:59:13.547Z,12.38
2022-12-31T19:01:41.602Z,12.07
2022-12-31T19:04:14.054Z,11.18
2022-12-31T19:06:41.368Z,13.73
2022-12-31T19:09:30.412Z,15.10
2022-12-31T19:11:56.109Z,14.15
2022-12-31T19:14:24.605Z,16.02
2022-12-31T19:16:53.394Z,11.90
2022-12-31T19:19:22.651Z,13.73
2022-12-31T19:21:49.952Z,11.93
2022-12-31T19:24:17.213Z,11.65
2022-12-31T19:26:44.465Z,13.52
2022-12-31T19:29:22.729Z,9.90
2022-12-31T19:31:50.279Z,15.57
2022-12-31T19:34:17.698Z,13.55
2022-12-31T19:36:44.943Z,14.73
2022-12-31T19:39:16.581Z,11.23
2022-12-31T19:41:44.154Z,11.65
2022-12-31T19:44:15.411Z,15.18
2022-12-31T19:46:42.773Z,11.30
2022-12-31T19:49:13.672Z,13.43
2022-12-31T19:51:41.617Z,11.80
2022-12-31T19:54:09.143Z,14.02
2022-12-31T19:56:36.596Z,11.82
2022-12-31T19:59:05.127Z,13.73
2022-12-31T20:01:32.513Z,17.00
2022-12-31T20:03:59.929Z,17.05
2022-12-31T20:06:27.185Z,14.95
2022-12-31T20:08:54.493Z,14.20
2022-12-31T20:11:23.005Z,12.25
2022-12-31T20:13:52.167Z,13.50
2022-12-31T20:16:21.543Z,14.07
2022-12-31T20:18:50.434Z,12.77
2022-12-31T20:21:19.364Z,11.13
2022-12-31T20:23:47.696Z,12.68
2022-12-31T20:26:15.027Z,13.40
2022-12-31T20:28:42.356Z,13.02
2022-12-31T20:31:12.747Z,12.25
2022-12-31T20:33:46.570Z,10.55
2022-12-31T20:36:15.295Z,15.07
2022-12-31T20:38:42.948Z,15.65
2022-12-31T20:41:11.722Z,13.27
2022-12-31T20:43:39.808Z,13.23
2022-12-31T20:46:15.725Z,13.25
2022-12-31T20:48:43.935Z,14.57
2022-12-31T20:51:13.373Z,11.45
2022-12-31T20:53:40.822Z,11.00
2022-12-31T20:56:09.981Z,14.52
2022-12-31T20:58:37.478Z,13.32
2022-12-31T21:01:09.445Z,11.32
2022-12-31T21:04:04.134Z,20.50
2022-12-31T21:06:25.275Z,18.25
2022-12-31T21:08:52.569Z,13.38
2022-12-31T21:11:38.368Z,16.55
2022-12-31T21:14:05.662Z,16.50
2022-12-31T21:16:33.451Z,13.35
2022-12-31T21:19:01.575Z,17.10
2022-12-31T21:21:29.029Z,14.55
2022-12-31T21:23:56.542Z,17.50
2022-12-31T21:26:24.143Z,15.10
2022-12-31T21:28:51.502Z,12.23
2022-12-31T21:31:18.954Z,11.10
2022-12-31T21:33:46.633Z,11.82
2022-12-31T21:36:14.411Z,12.18
2022-12-31T21:38:41.868Z,13.65
2022-12-31T21:41:34.093Z,12.25
2022-12-31T21:44:04.915Z,13.32
2022-12-31T21:46:32.493Z,16.20
2022-12-31T21:49:00.590Z,12.27
2022-12-31T21:51:28.607Z,14.82
2022-12-31T21:53:56.254Z,14.50
2022-12-31T21:56:24.079Z,12.95
2022-12-31T21:59:14.665Z,13.75
2022-12-31T22:02:01.482Z,13.70
2022-12-31T22:05:00.896Z,41.80
2022-12-31T22:07:16.452Z,16.55
2022-12-31T22:09:43.764Z,17.95
2022-12-31T22:12:11.081Z,14.15
2022-12-31T22:14:38.353Z,12.77
2022-12-31T22:17:05.676Z,14.63
2022-12-31T22:19:43.469Z,18.23
2022-12-31T22:22:20.254Z,15.27
2022-12-31T22:24:47.705Z,12.23
2022-12-31T22:27:28.450Z,11.98
2022-12-31T22:29:57.054Z,11.10
2022-12-31T22:32:24.300Z,10.68
2022-12-31T22:34:51.565Z,11.80
2022-12-31T22:37:55.230Z,10.20
2022-12-31T22:40:07.335Z,12.50
2022-12-31T22:42:34.624Z,11.85
2022-12-31T22:45:01.961Z,11.32
2022-12-31T22:47:29.250Z,13.57
2022-12-31T22:49:56.532Z,10.95
2022-12-31T22:52:23.741Z,11.55
2022-12-31T22:54:51.112Z,9.23
2022-12-31T22:57:20.320Z,15.27
2022-12-31T22:59:47.961Z,10.95
2022-12-31T23:02:16.345Z,11.55
2022-12-31T23:04:44.767Z,13.15
2022-12-31T23:07:12.017Z,10.85
2022-12-31T23:09:57.652Z,14.23
2022-12-31T23:12:24.967Z,16.65
2022-12-31T23:15:11.506Z,14.80
2022-12-31T23:17:57.352Z,20.98
2022-12-31T23:20:44.340Z,22.80
2022-12-31T23:23:16.097Z,24.98
2022-12-31T23:25:46.137Z,29.02
2022-12-31T23:28:16.553Z,28.83
2022-12-31T23:30:44.346Z,22.27
2022-12-31T23:33:22.485Z,21.40
2022-12-31T23:35:51.276Z,26.25
2022-12-31T23:38:18.880Z,31.00
2022-12-31T23:40:46.559Z,28.90
2022-12-31T23:43:19.610Z,27.67
2022-12-31T23:45:46.864Z,25.90
2022-12-31T23:48:14.133Z,23.73
2022-12-31T23:50:41.531Z,24.63
2022-12-31T23:53:08.758Z,25.15
2022-12-31T23:55:36.046Z,29.23
2022-12-31T23:58:03.375Z,29.23
